Time;durP1;ratioP1;P1;durP2;ratioP2;P2;SDS_P1;SDS_P2;PMS_P1;PMS_P2;Temp;Humidity;BMP_temperature;BMP_pressure;BME280_temperature;BME280_humidity;BME280_pressure;Samples;Min_cycle;Max_cycle;Signal;HPM_P1;HPM_P2
2022/10/11 00:00:19;;;;;;;1.92;0.80;;;20.00;74.30;;;;;;5059522;28;20027;-64
2022/10/11 00:02:47;;;;;;;6.72;1.10;;;19.90;76.40;;;;;;5051604;28;20029;-63
2022/10/11 00:05:14;;;;;;;2.72;0.60;;;19.70;76.00;;;;;;5048640;28;20084;-64
2022/10/11 00:07:41;;;;;;;2.90;0.70;;;19.70;77.60;;;;;;5051191;28;20024;-64
2022/10/11 00:10:10;;;;;;;5.43;0.98;;;19.30;77.80;;;;;;5056156;28;20021;-64
2022/10/11 00:12:37;;;;;;;5.63;0.60;;;19.10;78.50;;;;;;5061072;28;20024;-64
2022/10/11 00:15:06;;;;;;;3.65;1.27;;;19.10;80.20;;;;;;5052579;28;20029;-64
2022/10/11 00:17:34;;;;;;;2.63;0.70;;;19.00;81.60;;;;;;5058531;28;20043;-63
2022/10/11 00:20:01;;;;;;;3.38;0.90;;;19.10;81.40;;;;;;5065123;28;20021;-63
2022/10/11 00:22:29;;;;;;;5.38;0.85;;;19.20;81.00;;;;;;5048814;28;20033;-63
2022/10/11 00:24:57;;;;;;;4.35;0.82;;;19.30;80.90;;;;;;5050057;28;20032;-62
2022/10/11 00:27:25;;;;;;;2.28;0.70;;;19.50;79.70;;;;;;5057221;28;20033;-63
2022/10/11 00:29:52;;;;;;;3.95;1.15;;;19.50;76.10;;;;;;5051237;28;20108;-63
2022/10/11 00:32:20;;;;;;;4.60;1.10;;;19.60;77.80;;;;;;5048471;28;20021;-63
2022/10/11 00:34:47;;;;;;;4.50;1.27;;;19.60;78.80;;;;;;5050898;28;20392;-63
2022/10/11 00:37:15;;;;;;;2.35;0.73;;;19.60;79.50;;;;;;5047644;28;20024;-63
2022/10/11 00:39:42;;;;;;;5.55;1.38;;;19.60;79.70;;;;;;5051113;28;20028;-63
2022/10/11 00:42:14;;;;;;;3.70;0.90;;;19.60;80.10;;;;;;5063260;28;20040;-62
2022/10/11 00:44:47;;;;;;;4.15;1.10;;;19.70;81.20;;;;;;5047603;28;20021;-63
2022/10/11 00:47:23;;;;;;;4.40;1.20;;;19.80;84.70;;;;;;5047345;28;20281;-64
2022/10/11 00:50:00;;;;;;;5.13;1.33;;;19.70;84.80;;;;;;5053371;28;20040;-63
2022/10/11 00:52:39;;;;;;;4.25;1.05;;;19.70;84.60;;;;;;5060781;28;20067;-63
2022/10/11 00:55:12;;;;;;;3.03;0.90;;;19.60;85.80;;;;;;5057462;28;20025;-64
2022/10/11 00:57:46;;;;;;;3.72;1.00;;;19.50;85.80;;;;;;5052879;28;20049;-63
2022/10/11 01:00:15;;;;;;;6.38;1.10;;;19.60;86.80;;;;;;5064054;28;20039;-63
2022/10/11 01:02:43;;;;;;;3.58;1.45;;;19.60;86.50;;;;;;5051959;28;20041;-63
2022/10/11 01:05:13;;;;;;;2.60;0.88;;;19.70;87.70;;;;;;5056475;28;20071;-63
2022/10/11 01:07:42;;;;;;;4.47;1.45;;;19.80;86.50;;;;;;5050992;28;20025;-63
2022/10/11 01:10:09;;;;;;;4.68;1.52;;;19.90;87.30;;;;;;5058148;28;20021;-64
2022/10/11 01:12:57;;;;;;;11.18;1.17;;;20.10;86.70;;;;;;5042570;28;20029;-64
2022/10/11 01:15:45;;;;;;;5.05;1.38;;;20.20;85.00;;;;;;5051628;28;20045;-64
2022/10/11 01:18:44;;;;;;;3.60;1.10;;;20.30;83.00;;;;;;5048655;28;20087;-63
2022/10/11 01:21:26;;;;;;;3.13;0.98;;;20.60;81.60;;;;;;5016468;28;20048;-63
2022/10/11 01:24:02;;;;;;;4.05;1.05;;;20.80;81.10;;;;;;5037110;28;20024;-64
2022/10/11 01:27:01;;;;;;;6.35;0.95;;;20.90;76.80;;;;;;5057181;28;20013;-63
2022/10/11 01:29:52;;;;;;;4.70;1.00;;;20.60;78.30;;;;;;5025223;28;20501;-64
2022/10/11 01:32:42;;;;;;;3.80;0.88;;;20.60;79.60;;;;;;5053581;28;20074;-63
2022/10/11 01:35:31;;;;;;;4.05;0.77;;;20.60;78.10;;;;;;5057810;28;20159;-64
2022/10/11 01:38:22;;;;;;;2.88;0.80;;;20.60;79.10;;;;;;5070090;28;20032;-63
2022/10/11 01:41:01;;;;;;;5.53;1.10;;;20.80;79.90;;;;;;5056919;28;20024;-63
2022/10/11 01:43:29;;;;;;;3.00;1.00;;;20.90;78.10;;;;;;5044275;28;20375;-63
2022/10/11 01:45:59;;;;;;;3.88;1.35;;;20.90;75.50;;;;;;5051493;28;20150;-63
2022/10/11 01:48:26;;;;;;;2.95;1.38;;;20.70;75.60;;;;;;5047627;28;20402;-63
2022/10/11 01:50:57;;;;;;;4.55;0.98;;;20.50;77.90;;;;;;5054774;28;20059;-64
2022/10/11 01:53:24;;;;;;;4.70;0.77;;;20.30;78.80;;;;;;5047598;28;20174;-63
2022/10/11 01:55:52;;;;;;;3.53;0.98;;;20.00;77.00;;;;;;5049130;28;20024;-63
2022/10/11 01:58:41;;;;;;;5.22;0.88;;;19.80;79.90;;;;;;5045059;28;20150;-63
2022/10/11 02:01:17;;;;;;;5.10;1.27;;;19.80;79.30;;;;;;5045221;28;20529;-63
2022/10/11 02:04:04;;;;;;;3.08;0.90;;;19.60;78.00;;;;;;5057746;28;20440;-63
2022/10/11 02:06:38;;;;;;;1.88;0.90;;;19.50;78.10;;;;;;5046402;28;20025;-64
2022/10/11 02:09:29;;;;;;;3.47;0.98;;;19.40;78.10;;;;;;5046517;28;20409;-63
2022/10/11 02:12:05;;;;;;;4.43;1.38;;;19.40;78.40;;;;;;5043886;28;20090;-63
2022/10/11 02:14:38;;;;;;;4.82;1.05;;;19.50;79.30;;;;;;5055691;28;20426;-63
2022/10/11 02:17:21;;;;;;;5.25;0.85;;;19.20;78.50;;;;;;5051871;28;20094;-63
2022/10/11 02:19:52;;;;;;;3.13;1.60;;;19.10;79.20;;;;;;5064082;28;20052;-63
2022/10/11 02:22:32;;;;;;;2.70;1.05;;;18.80;80.00;;;;;;5054818;28;20078;-62
2022/10/11 02:25:04;;;;;;;2.22;0.70;;;18.60;81.60;;;;;;5057550;28;20074;-63
2022/10/11 02:27:36;;;;;;;5.00;1.23;;;18.60;83.20;;;;;;5052300;28;20033;-63
2022/10/11 02:30:08;;;;;;;3.97;1.27;;;18.60;83.50;;;;;;5060363;28;20029;-63
2022/10/11 02:32:40;;;;;;;6.03;1.10;;;18.70;83.90;;;;;;5057726;28;20127;-67
2022/10/11 02:35:08;;;;;;;3.70;1.65;;;18.60;82.70;;;;;;5064853;28;20020;-66
2022/10/11 02:37:44;;;;;;;3.97;1.10;;;18.60;81.10;;;;;;5062549;28;20029;-66
2022/10/11 02:40:24;;;;;;;1.67;0.77;;;18.70;81.70;;;;;;5054002;28;20107;-67
2022/10/11 02:42:58;;;;;;;1.63;0.80;;;18.60;81.40;;;;;;5051616;28;20425;-68
2022/10/11 02:45:36;;;;;;;2.47;1.00;;;18.70;80.90;;;;;;5044396;28;20025;-66
2022/10/11 02:48:06;;;;;;;5.18;1.48;;;18.70;80.90;;;;;;5039247;28;20080;-67
2022/10/11 02:50:33;;;;;;;2.80;0.80;;;18.60;82.10;;;;;;5059753;28;20048;-67
2022/10/11 02:53:03;;;;;;;5.20;1.00;;;18.60;82.30;;;;;;5084115;28;20662;-68
2022/10/11 02:55:31;;;;;;;6.35;1.02;;;18.70;81.20;;;;;;5054304;28;20758;-69
2022/10/11 02:57:58;;;;;;;2.22;0.88;;;18.80;81.10;;;;;;5062958;28;20606;-67
2022/10/11 03:00:26;;;;;;;3.47;0.80;;;18.90;81.70;;;;;;5060773;28;20021;-66
2022/10/11 03:02:53;;;;;;;4.43;1.00;;;18.90;82.10;;;;;;5059075;28;20515;-66
2022/10/11 03:05:21;;;;;;;3.33;1.10;;;18.80;80.60;;;;;;5054629;28;20075;-68
2022/10/11 03:07:48;;;;;;;1.98;1.13;;;18.90;81.20;;;;;;5065626;28;20029;-67
2022/10/11 03:10:16;;;;;;;1.58;0.98;;;18.70;81.80;;;;;;5048328;28;20056;-67
2022/10/11 03:12:43;;;;;;;4.35;1.00;;;18.80;81.50;;;;;;5040363;28;20044;-67
2022/10/11 03:15:10;;;;;;;2.58;0.90;;;18.90;81.30;;;;;;5055695;28;20020;-67
2022/10/11 03:17:38;;;;;;;1.90;1.00;;;18.90;79.90;;;;;;5063863;28;20056;-67
2022/10/11 03:20:06;;;;;;;1.45;0.73;;;19.10;79.80;;;;;;5054112;28;20073;-66
2022/10/11 03:22:34;;;;;;;5.43;1.05;;;19.20;78.90;;;;;;5060507;28;20068;-66
2022/10/11 03:25:01;;;;;;;3.90;1.10;;;19.10;79.20;;;;;;5061347;28;20408;-66
2022/10/11 03:27:28;;;;;;;3.05;1.08;;;19.20;79.50;;;;;;5047628;28;20476;-68
2022/10/11 03:29:56;;;;;;;3.03;1.02;;;19.10;79.90;;;;;;5063473;28;20039;-66
2022/10/11 03:32:24;;;;;;;3.55;1.00;;;19.30;79.60;;;;;;5049533;28;20108;-66
2022/10/11 03:34:51;;;;;;;2.97;1.35;;;19.60;79.30;;;;;;5051697;28;20025;-67
2022/10/11 03:37:19;;;;;;;8.85;1.20;;;19.80;77.00;;;;;;5057993;28;20029;-68
2022/10/11 03:39:46;;;;;;;2.50;1.02;;;19.90;75.00;;;;;;5056861;28;20025;-67
2022/10/11 03:42:14;;;;;;;3.20;1.25;;;19.80;75.20;;;;;;5056727;28;20064;-65
2022/10/11 03:44:41;;;;;;;7.05;2.25;;;20.10;75.50;;;;;;5051867;28;20032;-67
2022/10/11 03:47:09;;;;;;;4.13;1.45;;;20.20;76.10;;;;;;5052886;28;20017;-67
2022/10/11 03:49:36;;;;;;;4.32;1.33;;;20.10;74.20;;;;;;5052721;28;20045;-67
2022/10/11 03:52:04;;;;;;;7.25;1.13;;;20.20;74.20;;;;;;5061688;28;20100;-68
2022/10/11 03:54:31;;;;;;;8.85;2.20;;;20.20;74.20;;;;;;5057076;28;20028;-67
2022/10/11 03:56:58;;;;;;;3.85;1.05;;;20.30;74.40;;;;;;5050553;28;20035;-65
2022/10/11 03:59:26;;;;;;;3.30;1.20;;;20.50;73.80;;;;;;5052193;28;20389;-67
2022/10/11 04:01:53;;;;;;;1.48;0.63;;;20.80;72.60;;;;;;5051863;28;20028;-69
2022/10/11 04:04:20;;;;;;;3.90;0.80;;;21.10;70.30;;;;;;5050392;28;20078;-66
2022/10/11 04:06:48;;;;;;;5.47;1.10;;;21.20;68.40;;;;;;5056140;28;20029;-69
2022/10/11 04:09:15;;;;;;;2.15;0.80;;;21.20;71.40;;;;;;5063605;28;20253;-67
2022/10/11 04:11:42;;;;;;;3.28;1.20;;;21.50;68.60;;;;;;5053808;28;20028;-69
2022/10/11 04:14:10;;;;;;;4.97;0.90;;;21.60;69.20;;;;;;5052641;28;20023;-67
2022/10/11 04:16:40;;;;;;;3.72;1.15;;;21.80;68.50;;;;;;5050712;28;20509;-65
2022/10/11 04:19:08;;;;;;;2.67;0.82;;;21.80;67.80;;;;;;5065234;28;20032;-65
2022/10/11 04:21:35;;;;;;;6.03;1.20;;;21.70;68.50;;;;;;5058329;28;20025;-63
2022/10/11 04:24:06;;;;;;;2.70;0.90;;;21.50;66.70;;;;;;5057962;28;20036;-64
2022/10/11 04:26:33;;;;;;;2.85;1.00;;;21.40;66.40;;;;;;5062129;28;20056;-67
2022/10/11 04:29:00;;;;;;;3.42;1.08;;;21.40;69.10;;;;;;5055195;28;20027;-66
2022/10/11 04:31:28;;;;;;;7.07;0.98;;;21.30;67.80;;;;;;5064462;28;20530;-67
2022/10/11 04:33:56;;;;;;;4.57;0.93;;;21.20;68.90;;;;;;5064779;28;20096;-65
2022/10/11 04:36:24;;;;;;;2.28;0.88;;;21.10;70.90;;;;;;5059242;28;20482;-66
2022/10/11 04:38:51;;;;;;;2.47;1.10;;;20.90;71.40;;;;;;5053509;28;20025;-65
2022/10/11 04:41:18;;;;;;;3.80;1.38;;;20.90;71.40;;;;;;5061596;28;20033;-65
2022/10/11 04:43:46;;;;;;;5.70;1.20;;;20.70;71.20;;;;;;5066327;28;20064;-65
2022/10/11 04:46:13;;;;;;;8.73;1.02;;;20.60;71.90;;;;;;5056483;28;20028;-64
2022/10/11 04:48:43;;;;;;;4.13;1.50;;;20.30;73.00;;;;;;5067268;28;20029;-65
2022/10/11 04:51:11;;;;;;;5.50;1.10;;;20.00;73.00;;;;;;5057220;28;20073;-66
2022/10/11 04:53:38;;;;;;;4.28;0.90;;;19.70;74.80;;;;;;5055121;28;20490;-65
2022/10/11 04:56:09;;;;;;;3.42;1.00;;;19.60;75.40;;;;;;5057365;28;20035;-66
2022/10/11 04:58:39;;;;;;;2.17;1.17;;;19.60;76.30;;;;;;5060967;28;20120;-66
2022/10/11 05:01:08;;;;;;;6.65;0.90;;;19.60;77.20;;;;;;5051922;28;20025;-65
2022/10/11 05:03:36;;;;;;;2.38;0.88;;;19.80;75.50;;;;;;5056549;28;20140;-65
2022/10/11 05:06:04;;;;;;;2.17;1.20;;;20.00;74.90;;;;;;5060932;28;20063;-65
2022/10/11 05:08:31;;;;;;;8.52;4.93;;;20.00;74.60;;;;;;5054043;28;20028;-66
2022/10/11 05:11:02;;;;;;;5.10;1.77;;;20.00;75.20;;;;;;5052413;28;20063;-66
2022/10/11 05:13:30;;;;;;;2.65;1.40;;;19.90;74.40;;;;;;5065246;28;20140;-65
2022/10/11 05:15:58;;;;;;;4.00;1.15;;;20.00;74.30;;;;;;5050841;28;20025;-64
2022/10/11 05:18:25;;;;;;;3.53;0.93;;;20.00;73.90;;;;;;5056380;28;20540;-66
2022/10/11 05:21:04;;;;;;;3.75;1.95;;;19.80;76.00;;;;;;5054150;28;20112;-66
2022/10/11 05:23:34;;;;;;;2.55;0.85;;;19.60;74.20;;;;;;5058218;28;20032;-65
2022/10/11 05:26:02;;;;;;;2.88;0.95;;;19.40;76.90;;;;;;5051784;28;20032;-65
2022/10/11 05:28:30;;;;;;;2.95;1.02;;;19.20;77.80;;;;;;5051982;28;20124;-65
2022/10/11 05:30:58;;;;;;;5.60;2.80;;;19.20;77.40;;;;;;5052262;28;20044;-66
2022/10/11 05:33:26;;;;;;;5.22;1.70;;;19.20;78.60;;;;;;5044442;28;20386;-66
2022/10/11 05:35:53;;;;;;;6.40;1.27;;;19.40;79.20;;;;;;5047949;28;20025;-67
2022/10/11 05:38:21;;;;;;;3.47;1.95;;;19.30;77.20;;;;;;5049741;28;20021;-65
2022/10/11 05:40:49;;;;;;;6.40;1.20;;;19.30;78.40;;;;;;5049410;28;20021;-65
2022/10/11 05:43:16;;;;;;;9.30;3.40;;;19.40;77.20;;;;;;5046026;28;20055;-65
2022/10/11 05:45:45;;;;;;;9.32;3.20;;;19.50;76.20;;;;;;5075281;28;20079;-64
2022/10/11 05:48:13;;;;;;;4.90;1.95;;;19.50;76.90;;;;;;5050386;28;20047;-65
2022/10/11 05:50:40;;;;;;;6.07;1.65;;;19.50;76.00;;;;;;5041841;28;20045;-65
2022/10/11 05:53:08;;;;;;;3.85;1.30;;;19.60;76.40;;;;;;5046847;28;20088;-65
2022/10/11 05:55:37;;;;;;;5.75;1.00;;;19.60;74.40;;;;;;5048191;28;20044;-65
2022/10/11 05:58:06;;;;;;;7.68;1.30;;;19.60;74.20;;;;;;5042999;28;20033;-65
2022/10/11 06:00:39;;;;;;;3.35;0.85;;;19.50;76.40;;;;;;5058158;28;20052;-64
2022/10/11 06:03:08;;;;;;;2.50;0.90;;;19.50;75.30;;;;;;5047095;28;20098;-65
2022/10/11 06:05:36;;;;;;;2.13;1.00;;;19.50;75.30;;;;;;5046770;28;20588;-65
2022/10/11 06:08:05;;;;;;;3.88;1.08;;;19.40;75.90;;;;;;5043193;28;20033;-65
2022/10/11 06:10:37;;;;;;;2.42;0.88;;;19.40;74.80;;;;;;5044204;28;20803;-66
2022/10/11 06:13:04;;;;;;;4.90;0.90;;;19.40;75.80;;;;;;5048349;28;20036;-66
2022/10/11 06:15:32;;;;;;;2.75;1.17;;;19.40;75.50;;;;;;5047082;28;20096;-65
2022/10/11 06:18:00;;;;;;;2.10;1.10;;;19.30;75.00;;;;;;5042107;28;20025;-65
2022/10/11 06:20:27;;;;;;;2.70;1.05;;;19.10;75.00;;;;;;5044696;28;20013;-66
2022/10/11 06:22:55;;;;;;;2.03;0.98;;;19.10;76.00;;;;;;5045770;28;20490;-65
2022/10/11 06:25:22;;;;;;;2.03;0.93;;;19.00;75.00;;;;;;5047600;28;20046;-66
2022/10/11 06:27:49;;;;;;;2.22;1.67;;;19.10;75.70;;;;;;5046712;28;20127;-66
2022/10/11 06:30:17;;;;;;;2.63;0.98;;;19.20;75.20;;;;;;5047743;28;20018;-66
2022/10/11 06:32:44;;;;;;;2.47;1.00;;;19.20;75.80;;;;;;5047222;28;20107;-65
2022/10/11 06:35:12;;;;;;;3.70;1.00;;;19.30;76.10;;;;;;5046092;28;20021;-66
2022/10/11 06:37:39;;;;;;;2.55;1.13;;;19.40;74.80;;;;;;5046675;28;20029;-65
2022/10/11 06:40:09;;;;;;;1.55;0.90;;;19.20;75.60;;;;;;5047512;28;20475;-66
2022/10/11 06:42:37;;;;;;;2.88;0.85;;;19.00;76.50;;;;;;5046091;28;20072;-66
2022/10/11 06:45:04;;;;;;;2.38;1.15;;;18.80;76.50;;;;;;5044550;28;20021;-66
2022/10/11 06:47:32;;;;;;;3.13;1.15;;;18.60;77.60;;;;;;5053289;28;20040;-66
2022/10/11 06:49:59;;;;;;;3.22;1.00;;;18.40;77.70;;;;;;5048433;28;20076;-66
2022/10/11 06:52:26;;;;;;;6.63;1.85;;;18.20;78.50;;;;;;5045542;28;20506;-66
2022/10/11 06:54:54;;;;;;;3.10;1.40;;;18.10;79.80;;;;;;5044728;28;20551;-65
2022/10/11 06:57:21;;;;;;;1.77;1.00;;;17.90;80.40;;;;;;5047514;28;20045;-65
2022/10/11 06:59:49;;;;;;;2.05;0.95;;;17.90;81.40;;;;;;5047965;28;20028;-66
2022/10/11 07:02:16;;;;;;;4.80;1.08;;;17.80;82.20;;;;;;5045427;28;20032;-66
2022/10/11 07:04:43;;;;;;;2.90;0.85;;;17.80;82.80;;;;;;5043687;28;20029;-65
2022/10/11 07:07:13;;;;;;;1.30;0.80;;;17.70;82.70;;;;;;5045600;28;20059;-67
2022/10/11 07:09:41;;;;;;;2.25;0.98;;;17.80;83.70;;;;;;5045535;28;20036;-67
2022/10/11 07:12:08;;;;;;;7.43;1.27;;;17.80;82.60;;;;;;5047009;28;20029;-66
2022/10/11 07:14:36;;;;;;;4.25;1.75;;;17.80;82.60;;;;;;5047692;28;20394;-67
2022/10/11 07:17:03;;;;;;;4.03;2.03;;;17.90;83.20;;;;;;5047350;28;20045;-66
2022/10/11 07:19:30;;;;;;;2.17;0.88;;;17.90;81.60;;;;;;5048166;28;20441;-67
2022/10/11 07:21:58;;;;;;;8.05;1.88;;;17.90;82.70;;;;;;5048193;28;20040;-66
2022/10/11 07:24:25;;;;;;;3.58;1.20;;;17.90;82.10;;;;;;5047659;28;20032;-66
2022/10/11 07:26:53;;;;;;;4.45;1.50;;;17.90;83.30;;;;;;5048181;28;20048;-66
2022/10/11 07:29:20;;;;;;;4.50;1.52;;;17.90;82.30;;;;;;5041665;28;20025;-66
2022/10/11 07:31:47;;;;;;;4.75;1.40;;;17.80;82.60;;;;;;5061201;28;20120;-66
2022/10/11 07:34:15;;;;;;;5.25;1.10;;;17.70;83.20;;;;;;5035025;28;20036;-66
2022/10/11 07:36:42;;;;;;;2.45;1.40;;;17.50;83.80;;;;;;5045485;28;20025;-65
2022/10/11 07:39:10;;;;;;;4.20;1.25;;;17.40;84.30;;;;;;5041784;28;20070;-66
2022/10/11 07:41:37;;;;;;;3.05;1.48;;;17.20;85.60;;;;;;5040593;28;20067;-66
2022/10/11 07:44:05;;;;;;;3.10;1.30;;;17.10;86.50;;;;;;5042499;28;20115;-66
2022/10/11 07:46:32;;;;;;;2.30;1.40;;;16.90;87.00;;;;;;5058579;28;20028;-66
2022/10/11 07:49:00;;;;;;;5.95;1.60;;;16.80;88.20;;;;;;5055567;28;20064;-64
2022/10/11 07:51:27;;;;;;;2.85;1.23;;;16.70;88.90;;;;;;5040445;28;20083;-64
2022/10/11 07:53:56;;;;;;;3.30;1.40;;;16.60;89.40;;;;;;5047839;28;20036;-64
2022/10/11 07:56:28;;;;;;;3.55;1.45;;;16.50;90.10;;;;;;5045601;28;20033;-65
2022/10/11 07:59:02;;;;;;;3.78;1.30;;;16.50;90.40;;;;;;5043568;28;20017;-65
2022/10/11 08:01:30;;;;;;;2.42;1.15;;;16.50;90.20;;;;;;5047385;28;20555;-64
2022/10/11 08:03:57;;;;;;;4.70;1.20;;;16.50;90.00;;;;;;5062969;28;20045;-64
2022/10/11 08:06:29;;;;;;;3.28;1.30;;;16.50;89.60;;;;;;5049806;28;20125;-64
2022/10/11 08:08:58;;;;;;;3.53;1.50;;;16.50;89.40;;;;;;5058095;28;20115;-63
2022/10/11 08:11:31;;;;;;;8.40;1.17;;;16.50;89.80;;;;;;5049264;28;20167;-66
2022/10/11 08:13:59;;;;;;;5.45;1.20;;;16.40;89.00;;;;;;5048808;28;20480;-66
2022/10/11 08:16:27;;;;;;;3.60;0.98;;;16.40;88.30;;;;;;5048650;28;20497;-66
2022/10/11 08:18:55;;;;;;;7.00;1.70;;;16.40;87.60;;;;;;5048246;28;20021;-68
2022/10/11 08:21:23;;;;;;;6.80;1.80;;;16.40;87.80;;;;;;5054415;28;20060;-66
2022/10/11 08:23:51;;;;;;;3.55;1.40;;;16.40;86.80;;;;;;5053060;28;20037;-65
2022/10/11 08:26:18;;;;;;;4.72;2.13;;;16.30;85.70;;;;;;5053371;28;20043;-65
2022/10/11 08:28:45;;;;;;;2.60;0.95;;;16.30;84.90;;;;;;5059970;28;20066;-66
2022/10/11 08:31:15;;;;;;;3.72;1.30;;;16.30;83.90;;;;;;5053710;28;20027;-66
2022/10/11 08:33:42;;;;;;;1.30;0.90;;;16.20;84.20;;;;;;5057358;28;20099;-65
2022/10/11 08:36:10;;;;;;;4.05;1.40;;;16.20;82.60;;;;;;5053557;28;20043;-64
2022/10/11 08:38:38;;;;;;;1.58;0.85;;;16.10;83.50;;;;;;5058532;28;20099;-61
2022/10/11 08:41:40;;;;;;;4.00;1.20;;;16.10;83.70;;;;;;5056090;28;20037;-62
2022/10/11 08:44:41;;;;;;;6.60;1.33;;;16.00;83.30;;;;;;5038956;28;20505;-62
2022/10/11 08:47:33;;;;;;;4.85;0.93;;;16.00;84.00;;;;;;5053988;28;20028;-62
2022/10/11 08:50:01;;;;;;;2.25;1.10;;;15.90;84.10;;;;;;5047571;28;20041;-62
2022/10/11 08:52:37;;;;;;;2.38;1.00;;;16.00;84.20;;;;;;5052783;28;20053;-61
2022/10/11 08:55:28;;;;;;;5.95;1.27;;;16.00;84.60;;;;;;5043973;28;20017;-61
2022/10/11 08:57:56;;;;;;;5.85;1.10;;;15.90;84.80;;;;;;5048106;28;20032;-62
2022/10/11 09:00:28;;;;;;;3.70;1.23;;;15.90;85.90;;;;;;5060097;28;20025;-61
2022/10/11 09:03:03;;;;;;;4.32;1.45;;;15.80;86.10;;;;;;5045275;28;20484;-61
2022/10/11 09:05:35;;;;;;;1.90;1.25;;;15.70;87.90;;;;;;5059877;28;20036;-60
2022/10/11 09:08:24;;;;;;;6.30;1.23;;;15.70;88.00;;;;;;5055457;28;20032;-61
2022/10/11 09:11:18;;;;;;;5.25;1.33;;;15.70;88.10;;;;;;5054075;28;20464;-60
2022/10/11 09:14:10;;;;;;;4.88;1.42;;;15.70;88.40;;;;;;5046606;28;20121;-60
2022/10/11 09:16:58;;;;;;;4.30;1.30;;;15.70;89.10;;;;;;5046856;28;20398;-61
2022/10/11 09:19:46;;;;;;;4.78;2.15;;;15.70;89.50;;;;;;5050338;28;20021;-61
2022/10/11 09:22:42;;;;;;;6.13;1.33;;;15.60;90.00;;;;;;5057532;28;20025;-62
2022/10/11 09:25:24;;;;;;;3.90;1.48;;;15.60;90.40;;;;;;5048822;28;20393;-61
2022/10/11 09:28:12;;;;;;;7.25;1.52;;;15.60;90.40;;;;;;5048756;28;20107;-61
2022/10/11 09:30:48;;;;;;;3.53;1.17;;;15.60;90.50;;;;;;5046745;28;20527;-61
2022/10/11 09:33:35;;;;;;;3.22;1.00;;;15.60;90.70;;;;;;5050370;28;20033;-61
2022/10/11 09:36:22;;;;;;;5.82;1.33;;;15.60;91.00;;;;;;5043389;28;20025;-61
2022/10/11 09:39:20;;;;;;;2.78;1.08;;;15.50;91.10;;;;;;5048818;28;20072;-63
2022/10/11 09:41:52;;;;;;;12.60;1.50;;;15.50;91.40;;;;;;5047472;28;20029;-61
2022/10/11 09:44:26;;;;;;;3.75;1.23;;;15.50;91.50;;;;;;5048461;28;20041;-61
2022/10/11 09:46:57;;;;;;;8.30;1.40;;;15.50;91.90;;;;;;5054271;28;20020;-62
2022/10/11 09:49:48;;;;;;;8.18;1.55;;;15.40;92.00;;;;;;5048600;28;20044;-60
2022/10/11 09:52:17;;;;;;;2.97;1.30;;;15.40;92.00;;;;;;5045455;28;20025;-61
2022/10/11 09:54:48;;;;;;;2.15;1.05;;;15.40;92.10;;;;;;5047268;28;20009;-61
2022/10/11 09:57:23;;;;;;;4.22;1.25;;;15.40;92.20;;;;;;5046469;28;20032;-61
2022/10/11 10:00:07;;;;;;;4.97;1.40;;;15.30;92.50;;;;;;5046446;28;20109;-62
2022/10/11 10:02:49;;;;;;;4.47;1.38;;;15.40;92.60;;;;;;5049293;28;20037;-63
2022/10/11 10:05:23;;;;;;;4.03;1.00;;;15.30;92.70;;;;;;5045363;28;20033;-62
2022/10/11 10:08:21;;;;;;;2.63;1.23;;;15.30;92.80;;;;;;5048097;28;20040;-61
2022/10/11 10:11:04;;;;;;;1.73;0.95;;;15.30;93.10;;;;;;5040826;28;20433;-62
2022/10/11 10:13:44;;;;;;;1.98;1.30;;;15.30;93.20;;;;;;5061796;28;20047;-61
2022/10/11 10:16:22;;;;;;;5.53;1.30;;;15.40;93.20;;;;;;5059746;28;20147;-60
2022/10/11 10:19:06;;;;;;;4.03;1.45;;;15.30;93.70;;;;;;5046934;28;20055;-60
2022/10/11 10:21:44;;;;;;;6.38;1.40;;;15.30;93.80;;;;;;5045473;28;20449;-62
2022/10/11 10:24:40;;;;;;;5.85;1.27;;;15.20;93.60;;;;;;5045108;28;20090;-61
2022/10/11 10:27:16;;;;;;;3.28;1.20;;;15.20;93.60;;;;;;5038286;28;20139;-61
2022/10/11 10:29:59;;;;;;;4.57;1.30;;;15.20;93.50;;;;;;5045001;28;20037;-61
2022/10/11 10:32:49;;;;;;;8.23;1.38;;;15.20;93.70;;;;;;5046088;28;20489;-62
2022/10/11 10:35:37;;;;;;;4.00;1.15;;;15.20;93.70;;;;;;5060093;28;20032;-62
2022/10/11 10:38:15;;;;;;;4.00;1.15;;;15.20;93.90;;;;;;5061326;28;20021;-62
2022/10/11 10:40:52;;;;;;;3.72;1.10;;;15.20;93.90;;;;;;5056870;28;20043;-62
2022/10/11 10:43:23;;;;;;;5.22;1.33;;;15.20;93.90;;;;;;5052054;28;20035;-62
2022/10/11 10:46:25;;;;;;;3.15;1.23;;;15.20;94.00;;;;;;5048481;28;20035;-61
2022/10/11 10:49:22;;;;;;;4.13;1.20;;;15.20;94.20;;;;;;5045647;28;20418;-64
2022/10/11 10:52:16;;;;;;;3.42;1.17;;;15.10;94.50;;;;;;5053885;28;20086;-63
2022/10/11 10:55:07;;;;;;;3.53;1.38;;;15.10;94.40;;;;;;5050406;28;20064;-63
2022/10/11 10:58:08;;;;;;;6.03;1.63;;;15.10;94.50;;;;;;5042764;28;20021;-62
2022/10/11 11:01:15;;;;;;;4.80;1.27;;;15.10;94.70;;;;;;5049639;28;20021;-59
2022/10/11 11:03:54;;;;;;;4.28;1.10;;;15.10;94.80;;;;;;5037257;28;20056;-61
2022/10/11 11:06:34;;;;;;;3.78;0.93;;;15.00;94.90;;;;;;5046638;28;20057;-61
2022/10/11 11:09:45;;;;;;;2.95;1.23;;;15.00;95.20;;;;;;5050082;28;20402;-63
2022/10/11 11:12:34;;;;;;;5.28;1.23;;;15.00;95.30;;;;;;5051238;28;20043;-61
2022/10/11 11:15:04;;;;;;;3.78;1.40;;;15.00;95.70;;;;;;5055445;28;20497;-61
2022/10/11 11:17:59;;;;;;;4.95;1.23;;;14.90;95.70;;;;;;5055817;28;20029;-61
2022/10/11 11:20:38;;;;;;;6.43;1.20;;;14.90;95.70;;;;;;5046590;28;20028;-62
2022/10/11 11:23:30;;;;;;;4.43;1.80;;;14.90;95.80;;;;;;5055304;28;20187;-61
2022/10/11 11:26:27;;;;;;;7.22;1.42;;;14.90;95.90;;;;;;5047733;28;20062;-61
2022/10/11 11:29:03;;;;;;;5.47;1.45;;;14.90;96.10;;;;;;5057555;28;20057;-62
2022/10/11 11:31:58;;;;;;;5.97;1.30;;;14.90;96.20;;;;;;5064847;28;20024;-61
2022/10/11 11:34:32;;;;;;;10.43;1.80;;;14.80;96.30;;;;;;5057517;28;20029;-62
2022/10/11 11:37:17;;;;;;;2.70;1.15;;;14.80;96.50;;;;;;5047793;28;20040;-62
2022/10/11 11:40:07;;;;;;;2.53;1.23;;;14.80;96.60;;;;;;5048781;28;20025;-61
2022/10/11 11:42:57;;;;;;;2.90;1.23;;;14.70;96.70;;;;;;5049179;28;20410;-63
2022/10/11 11:45:28;;;;;;;3.70;1.33;;;14.70;97.00;;;;;;5044678;28;20030;-62
2022/10/11 11:48:12;;;;;;;5.03;1.63;;;14.60;97.10;;;;;;5047855;28;20089;-62
2022/10/11 11:50:43;;;;;;;6.65;1.02;;;14.60;97.30;;;;;;5054454;28;20037;-62
2022/10/11 11:53:18;;;;;;;7.45;1.50;;;14.50;97.50;;;;;;5054697;28;20017;-61
2022/10/11 11:56:04;;;;;;;4.13;1.15;;;14.50;97.70;;;;;;5049937;28;20158;-62
2022/10/11 11:58:58;;;;;;;4.22;1.50;;;14.50;97.90;;;;;;5059427;28;20025;-62
2022/10/11 12:01:43;;;;;;;5.30;1.63;;;14.40;98.00;;;;;;5056598;28;20031;-62
2022/10/11 12:04:27;;;;;;;3.58;1.40;;;14.40;98.30;;;;;;5050738;28;20037;-61
2022/10/11 12:07:03;;;;;;;6.85;1.50;;;14.30;98.40;;;;;;5046387;28;20033;-62
2022/10/11 12:09:32;;;;;;;7.47;1.40;;;14.30;98.50;;;;;;5049468;28;20025;-62
2022/10/11 12:12:03;;;;;;;4.00;1.40;;;14.30;98.50;;;;;;5053198;28;20074;-62
2022/10/11 12:14:34;;;;;;;8.35;1.50;;;14.30;98.50;;;;;;5056997;28;20047;-62
2022/10/11 12:17:09;;;;;;;3.70;1.50;;;14.20;98.70;;;;;;5047116;28;20036;-62
2022/10/11 12:19:39;;;;;;;4.00;1.92;;;14.10;98.80;;;;;;5052270;28;20025;-62
2022/10/11 12:22:28;;;;;;;5.53;2.08;;;14.10;98.80;;;;;;5050074;28;20013;-62
2022/10/11 12:25:08;;;;;;;3.85;1.33;;;14.00;99.00;;;;;;5059834;28;20073;-62
2022/10/11 12:27:45;;;;;;;3.92;1.30;;;13.90;99.10;;;;;;5062083;28;20096;-61
2022/10/11 12:30:45;;;;;;;4.35;1.33;;;13.80;99.30;;;;;;5055489;28;20474;-62
2022/10/11 12:33:25;;;;;;;5.53;1.20;;;13.70;99.30;;;;;;5036810;28;20521;-62
2022/10/11 12:35:58;;;;;;;5.65;1.50;;;13.50;99.50;;;;;;5050685;28;20028;-62
2022/10/11 12:38:28;;;;;;;3.72;1.85;;;13.40;99.80;;;;;;5053022;28;20024;-62
2022/10/11 12:41:01;;;;;;;7.55;1.65;;;13.30;99.90;;;;;;5081871;28;20033;-62
2022/10/11 12:43:35;;;;;;;4.80;1.55;;;13.20;99.90;;;;;;5053227;28;20612;-62
2022/10/11 12:46:21;;;;;;;;;;;13.00;99.90;;;;;;5057043;28;20032;-61
2022/10/11 12:49:16;;;;;;;5.35;2.72;;;12.90;99.90;;;;;;5055731;28;20743;-62
2022/10/11 12:51:50;;;;;;;4.70;1.60;;;12.80;99.90;;;;;;5051687;28;20067;-61
2022/10/11 12:54:42;;;;;;;8.75;1.50;;;12.60;99.90;;;;;;5048130;28;20035;-62
2022/10/11 12:57:10;;;;;;;5.38;1.63;;;12.50;99.90;;;;;;5050702;28;20028;-62
2022/10/11 12:59:43;;;;;;;4.60;1.50;;;12.40;99.90;;;;;;5056172;28;20025;-61
2022/10/11 13:02:43;;;;;;;8.35;2.40;;;12.20;99.90;;;;;;5060176;28;20025;-61
2022/10/11 13:05:27;;;;;;;7.25;1.90;;;12.10;99.90;;;;;;5047817;28;20041;-62
2022/10/11 13:07:58;;;;;;;6.57;1.55;;;12.00;99.90;;;;;;5042177;28;20025;-62
2022/10/11 13:10:34;;;;;;;7.22;1.95;;;11.90;99.90;;;;;;5049378;28;20044;-61
2022/10/11 13:13:05;;;;;;;4.70;1.52;;;11.70;99.90;;;;;;5062329;28;20103;-61
2022/10/11 13:15:33;;;;;;;6.80;1.83;;;11.70;99.90;;;;;;5045405;28;20034;-62
2022/10/11 13:18:02;;;;;;;6.43;1.80;;;11.50;99.90;;;;;;5039827;28;20025;-62
2022/10/11 13:20:33;;;;;;;4.13;1.55;;;11.40;99.90;;;;;;5050555;28;20025;-63
2022/10/11 13:23:01;;;;;;;4.35;1.77;;;11.40;99.90;;;;;;5050869;28;20478;-63